sensor_id;sensor_type;location;lat;lon;timestamp;P1;durP1;ratioP1;P2;durP2;ratioP2
72085;SDS011;64750;52.134;5.424;2024-03-07T00:00:05;28.05;;;15.70;;
72085;SDS011;64750;52.134;5.424;2024-03-07T00:02:46;35.13;;;17.07;;
72085;SDS011;64750;52.134;5.424;2024-03-07T00:05:18;28.70;;;16.63;;
72085;SDS011;64750;52.134;5.424;2024-03-07T00:07:46;28.42;;;17.83;;
72085;SDS011;64750;52.134;5.424;2024-03-07T00:10:14;29.35;;;16.52;;
72085;SDS011;64750;52.134;5.424;2024-03-07T00:12:42;26.23;;;16.10;;
72085;SDS011;64750;52.134;5.424;2024-03-07T00:15:10;31.80;;;16.90;;
72085;SDS011;64750;52.134;5.424;2024-03-07T00:17:39;31.60;;;17.90;;
72085;SDS011;64750;52.134;5.424;2024-03-07T00:20:06;33.38;;;17.27;;
72085;SDS011;64750;52.134;5.424;2024-03-07T00:22:41;29.85;;;16.38;;
72085;SDS011;64750;52.134;5.424;2024-03-07T00:25:08;32.63;;;17.42;;
72085;SDS011;64750;52.134;5.424;2024-03-07T00:27:35;30.67;;;17.77;;
72085;SDS011;64750;52.134;5.424;2024-03-07T00:30:02;29.13;;;16.33;;
72085;SDS011;64750;52.134;5.424;2024-03-07T00:32:31;31.90;;;18.60;;
72085;SDS011;64750;52.134;5.424;2024-03-07T00:35:02;32.95;;;17.40;;
72085;SDS011;64750;52.134;5.424;2024-03-07T00:37:31;32.20;;;17.75;;
72085;SDS011;64750;52.134;5.424;2024-03-07T00:39:58;31.17;;;17.63;;
72085;SDS011;64750;52.134;5.424;2024-03-07T00:42:25;26.08;;;17.23;;
72085;SDS011;64750;52.134;5.424;2024-03-07T00:44:53;28.65;;;17.45;;
72085;SDS011;64750;52.134;5.424;2024-03-07T00:47:20;31.65;;;18.10;;
72085;SDS011;64750;52.134;5.424;2024-03-07T00:49:46;27.42;;;16.80;;
72085;SDS011;64750;52.134;5.424;2024-03-07T00:52:13;28.80;;;17.60;;
72085;SDS011;64750;52.134;5.424;2024-03-07T00:54:40;30.63;;;17.02;;
72085;SDS011;64750;52.134;5.424;2024-03-07T00:57:07;27.83;;;16.52;;
72085;SDS011;64750;52.134;5.424;2024-03-07T00:59:34;27.13;;;16.33;;
72085;SDS011;64750;52.134;5.424;2024-03-07T01:02:00;27.83;;;17.02;;
72085;SDS011;64750;52.134;5.424;2024-03-07T01:04:27;29.13;;;16.87;;
72085;SDS011;64750;52.134;5.424;2024-03-07T01:07:00;29.35;;;17.20;;
72085;SDS011;64750;52.134;5.424;2024-03-07T01:09:27;31.70;;;17.08;;
72085;SDS011;64750;52.134;5.424;2024-03-07T01:11:54;28.95;;;16.58;;
72085;SDS011;64750;52.134;5.424;2024-03-07T01:14:21;30.10;;;17.00;;
72085;SDS011;64750;52.134;5.424;2024-03-07T01:16:48;30.47;;;17.63;;
72085;SDS011;64750;52.134;5.424;2024-03-07T01:19:15;31.10;;;17.38;;
72085;SDS011;64750;52.134;5.424;2024-03-07T01:21:41;37.55;;;18.95;;
72085;SDS011;64750;52.134;5.424;2024-03-07T01:24:08;28.88;;;17.27;;
72085;SDS011;64750;52.134;5.424;2024-03-07T01:26:35;37.08;;;19.08;;
72085;SDS011;64750;52.134;5.424;2024-03-07T01:29:02;32.10;;;17.33;;
72085;SDS011;64750;52.134;5.424;2024-03-07T01:31:28;32.92;;;17.65;;
72085;SDS011;64750;52.134;5.424;2024-03-07T01:33:55;32.75;;;17.67;;
72085;SDS011;64750;52.134;5.424;2024-03-07T01:36:21;29.83;;;17.60;;
72085;SDS011;64750;52.134;5.424;2024-03-07T01:38:48;34.08;;;17.67;;
72085;SDS011;64750;52.134;5.424;2024-03-07T01:41:15;31.47;;;17.47;;
72085;SDS011;64750;52.134;5.424;2024-03-07T01:43:42;31.20;;;17.92;;
72085;SDS011;64750;52.134;5.424;2024-03-07T01:46:09;28.95;;;17.02;;
72085;SDS011;64750;52.134;5.424;2024-03-07T01:48:37;26.75;;;16.52;;
72085;SDS011;64750;52.134;5.424;2024-03-07T01:51:04;32.33;;;17.10;;
72085;SDS011;64750;52.134;5.424;2024-03-07T01:53:31;31.07;;;17.60;;
72085;SDS011;64750;52.134;5.424;2024-03-07T01:55:59;29.80;;;17.88;;
72085;SDS011;64750;52.134;5.424;2024-03-07T01:58:28;32.10;;;17.10;;
72085;SDS011;64750;52.134;5.424;2024-03-07T02:00:55;34.38;;;18.08;;
72085;SDS011;64750;52.134;5.424;2024-03-07T02:03:22;34.22;;;17.70;;
72085;SDS011;64750;52.134;5.424;2024-03-07T02:05:49;31.50;;;17.77;;
72085;SDS011;64750;52.134;5.424;2024-03-07T02:08:15;33.90;;;17.70;;
72085;SDS011;64750;52.134;5.424;2024-03-07T02:10:42;29.80;;;17.42;;
72085;SDS011;64750;52.134;5.424;2024-03-07T02:13:09;32.35;;;17.88;;
72085;SDS011;64750;52.134;5.424;2024-03-07T02:15:35;33.85;;;17.55;;
72085;SDS011;64750;52.134;5.424;2024-03-07T02:18:02;38.10;;;17.30;;
72085;SDS011;64750;52.134;5.424;2024-03-07T02:20:29;35.10;;;18.10;;
72085;SDS011;64750;52.134;5.424;2024-03-07T02:22:55;37.63;;;17.77;;
72085;SDS011;64750;52.134;5.424;2024-03-07T02:25:22;34.45;;;18.48;;
72085;SDS011;64750;52.134;5.424;2024-03-07T02:27:48;33.72;;;17.55;;
72085;SDS011;64750;52.134;5.424;2024-03-07T02:30:15;33.30;;;18.13;;
72085;SDS011;64750;52.134;5.424;2024-03-07T02:32:41;34.67;;;19.27;;
72085;SDS011;64750;52.134;5.424;2024-03-07T02:35:08;34.58;;;19.08;;
72085;SDS011;64750;52.134;5.424;2024-03-07T02:37:35;29.00;;;16.58;;
72085;SDS011;64750;52.134;5.424;2024-03-07T02:40:01;32.88;;;17.48;;
72085;SDS011;64750;52.134;5.424;2024-03-07T02:42:28;33.50;;;17.73;;
72085;SDS011;64750;52.134;5.424;2024-03-07T02:44:54;33.60;;;17.90;;
72085;SDS011;64750;52.134;5.424;2024-03-07T02:47:21;29.38;;;17.83;;
72085;SDS011;64750;52.134;5.424;2024-03-07T02:49:50;31.38;;;17.55;;
72085;SDS011;64750;52.134;5.424;2024-03-07T02:52:16;29.23;;;17.17;;
72085;SDS011;64750;52.134;5.424;2024-03-07T02:54:43;34.43;;;18.70;;
72085;SDS011;64750;52.134;5.424;2024-03-07T02:57:09;34.58;;;17.08;;
72085;SDS011;64750;52.134;5.424;2024-03-07T02:59:38;28.45;;;17.27;;
72085;SDS011;64750;52.134;5.424;2024-03-07T03:02:04;36.60;;;17.63;;
72085;SDS011;64750;52.134;5.424;2024-03-07T03:04:32;33.58;;;17.90;;
72085;SDS011;64750;52.134;5.424;2024-03-07T03:06:59;34.07;;;17.67;;
72085;SDS011;64750;52.134;5.424;2024-03-07T03:09:25;35.85;;;18.42;;
72085;SDS011;64750;52.134;5.424;2024-03-07T03:11:54;31.00;;;18.23;;
72085;SDS011;64750;52.134;5.424;2024-03-07T03:14:20;28.67;;;16.80;;
72085;SDS011;64750;52.134;5.424;2024-03-07T03:16:47;34.60;;;17.73;;
72085;SDS011;64750;52.134;5.424;2024-03-07T03:19:14;35.93;;;16.83;;
72085;SDS011;64750;52.134;5.424;2024-03-07T03:21:41;29.65;;;17.90;;
72085;SDS011;64750;52.134;5.424;2024-03-07T03:24:09;29.08;;;16.70;;
72085;SDS011;64750;52.134;5.424;2024-03-07T03:26:35;35.17;;;17.83;;
72085;SDS011;64750;52.134;5.424;2024-03-07T03:29:02;34.97;;;18.20;;
72085;SDS011;64750;52.134;5.424;2024-03-07T03:31:28;36.20;;;18.33;;
72085;SDS011;64750;52.134;5.424;2024-03-07T03:33:55;31.80;;;17.98;;
72085;SDS011;64750;52.134;5.424;2024-03-07T03:36:21;32.53;;;17.88;;
72085;SDS011;64750;52.134;5.424;2024-03-07T03:38:48;34.28;;;17.20;;
72085;SDS011;64750;52.134;5.424;2024-03-07T03:41:15;32.20;;;17.10;;
72085;SDS011;64750;52.134;5.424;2024-03-07T03:43:43;38.27;;;18.63;;
72085;SDS011;64750;52.134;5.424;2024-03-07T03:46:10;29.85;;;16.77;;
72085;SDS011;64750;52.134;5.424;2024-03-07T03:48:41;32.15;;;16.88;;
72085;SDS011;64750;52.134;5.424;2024-03-07T03:51:08;31.95;;;17.92;;
72085;SDS011;64750;52.134;5.424;2024-03-07T03:53:38;31.63;;;17.85;;
72085;SDS011;64750;52.134;5.424;2024-03-07T03:56:05;36.53;;;17.80;;
72085;SDS011;64750;52.134;5.424;2024-03-07T03:58:32;31.95;;;17.70;;
72085;SDS011;64750;52.134;5.424;2024-03-07T04:00:58;34.05;;;18.17;;
72085;SDS011;64750;52.134;5.424;2024-03-07T04:03:25;29.25;;;17.52;;
72085;SDS011;64750;52.134;5.424;2024-03-07T04:05:52;32.28;;;17.63;;
72085;SDS011;64750;52.134;5.424;2024-03-07T04:08:19;32.97;;;18.70;;
72085;SDS011;64750;52.134;5.424;2024-03-07T04:10:46;29.77;;;17.45;;
72085;SDS011;64750;52.134;5.424;2024-03-07T04:13:13;32.42;;;17.77;;
72085;SDS011;64750;52.134;5.424;2024-03-07T04:15:39;32.63;;;17.05;;
72085;SDS011;64750;52.134;5.424;2024-03-07T04:18:10;32.60;;;17.52;;
72085;SDS011;64750;52.134;5.424;2024-03-07T04:20:38;31.47;;;16.70;;
72085;SDS011;64750;52.134;5.424;2024-03-07T04:23:05;30.58;;;17.33;;
72085;SDS011;64750;52.134;5.424;2024-03-07T04:25:34;35.80;;;17.58;;
72085;SDS011;64750;52.134;5.424;2024-03-07T04:28:00;30.50;;;16.50;;
72085;SDS011;64750;52.134;5.424;2024-03-07T04:30:27;38.42;;;18.30;;
72085;SDS011;64750;52.134;5.424;2024-03-07T04:32:53;31.13;;;16.10;;
72085;SDS011;64750;52.134;5.424;2024-03-07T04:35:20;35.78;;;18.10;;
72085;SDS011;64750;52.134;5.424;2024-03-07T04:37:47;28.63;;;16.48;;
72085;SDS011;64750;52.134;5.424;2024-03-07T04:40:14;35.85;;;17.90;;
72085;SDS011;64750;52.134;5.424;2024-03-07T04:42:45;27.52;;;17.20;;
72085;SDS011;64750;52.134;5.424;2024-03-07T04:45:13;33.43;;;16.87;;
72085;SDS011;64750;52.134;5.424;2024-03-07T04:47:43;34.42;;;18.38;;
72085;SDS011;64750;52.134;5.424;2024-03-07T04:50:11;31.13;;;17.98;;
72085;SDS011;64750;52.134;5.424;2024-03-07T04:52:39;30.13;;;16.25;;
72085;SDS011;64750;52.134;5.424;2024-03-07T04:55:06;32.38;;;16.48;;
72085;SDS011;64750;52.134;5.424;2024-03-07T04:57:37;33.37;;;17.23;;
72085;SDS011;64750;52.134;5.424;2024-03-07T05:00:06;32.70;;;16.98;;
72085;SDS011;64750;52.134;5.424;2024-03-07T05:02:34;32.58;;;17.55;;
72085;SDS011;64750;52.134;5.424;2024-03-07T05:05:00;29.15;;;16.80;;
72085;SDS011;64750;52.134;5.424;2024-03-07T05:07:27;26.48;;;16.13;;
72085;SDS011;64750;52.134;5.424;2024-03-07T05:09:53;28.43;;;16.60;;
72085;SDS011;64750;52.134;5.424;2024-03-07T05:12:20;27.38;;;16.48;;
72085;SDS011;64750;52.134;5.424;2024-03-07T05:14:46;29.52;;;16.35;;
72085;SDS011;64750;52.134;5.424;2024-03-07T05:17:13;27.38;;;15.68;;
72085;SDS011;64750;52.134;5.424;2024-03-07T05:19:39;29.52;;;15.30;;
72085;SDS011;64750;52.134;5.424;2024-03-07T05:22:06;30.03;;;16.83;;
72085;SDS011;64750;52.134;5.424;2024-03-07T05:24:33;27.80;;;15.60;;
72085;SDS011;64750;52.134;5.424;2024-03-07T05:27:00;27.83;;;15.38;;
72085;SDS011;64750;52.134;5.424;2024-03-07T05:29:27;30.70;;;15.85;;
72085;SDS011;64750;52.134;5.424;2024-03-07T05:31:54;26.48;;;16.65;;
72085;SDS011;64750;52.134;5.424;2024-03-07T05:34:20;26.47;;;14.97;;
72085;SDS011;64750;52.134;5.424;2024-03-07T05:36:49;31.35;;;15.98;;
72085;SDS011;64750;52.134;5.424;2024-03-07T05:39:16;27.15;;;14.93;;
72085;SDS011;64750;52.134;5.424;2024-03-07T05:41:44;27.02;;;15.38;;
72085;SDS011;64750;52.134;5.424;2024-03-07T05:44:12;24.67;;;15.75;;
72085;SDS011;64750;52.134;5.424;2024-03-07T05:46:39;28.33;;;15.43;;
72085;SDS011;64750;52.134;5.424;2024-03-07T05:49:13;30.30;;;16.67;;
72085;SDS011;64750;52.134;5.424;2024-03-07T05:51:40;27.25;;;15.65;;
72085;SDS011;64750;52.134;5.424;2024-03-07T05:54:13;27.17;;;15.27;;
72085;SDS011;64750;52.134;5.424;2024-03-07T05:56:40;27.17;;;15.75;;
72085;SDS011;64750;52.134;5.424;2024-03-07T05:59:08;26.73;;;15.33;;
72085;SDS011;64750;52.134;5.424;2024-03-07T06:01:38;34.63;;;15.93;;
72085;SDS011;64750;52.134;5.424;2024-03-07T06:04:05;34.90;;;18.45;;
72085;SDS011;64750;52.134;5.424;2024-03-07T06:06:33;34.38;;;18.20;;
72085;SDS011;64750;52.134;5.424;2024-03-07T06:09:05;32.58;;;18.45;;
72085;SDS011;64750;52.134;5.424;2024-03-07T06:11:35;32.17;;;17.43;;
72085;SDS011;64750;52.134;5.424;2024-03-07T06:14:03;35.95;;;18.52;;
72085;SDS011;64750;52.134;5.424;2024-03-07T06:16:33;27.48;;;17.00;;
72085;SDS011;64750;52.134;5.424;2024-03-07T06:19:02;34.45;;;18.33;;
72085;SDS011;64750;52.134;5.424;2024-03-07T06:21:32;32.05;;;18.20;;
72085;SDS011;64750;52.134;5.424;2024-03-07T06:24:00;34.83;;;19.30;;
72085;SDS011;64750;52.134;5.424;2024-03-07T06:26:34;31.58;;;17.10;;
72085;SDS011;64750;52.134;5.424;2024-03-07T06:29:07;31.42;;;17.73;;
72085;SDS011;64750;52.134;5.424;2024-03-07T06:31:34;35.10;;;17.55;;
72085;SDS011;64750;52.134;5.424;2024-03-07T06:34:01;31.30;;;18.08;;
72085;SDS011;64750;52.134;5.424;2024-03-07T06:36:27;41.50;;;18.83;;
72085;SDS011;64750;52.134;5.424;2024-03-07T06:38:54;32.55;;;18.63;;
72085;SDS011;64750;52.134;5.424;2024-03-07T06:41:21;31.90;;;18.40;;
72085;SDS011;64750;52.134;5.424;2024-03-07T06:43:47;31.88;;;17.27;;
72085;SDS011;64750;52.134;5.424;2024-03-07T06:46:16;31.58;;;18.35;;
72085;SDS011;64750;52.134;5.424;2024-03-07T06:48:42;29.77;;;17.50;;
72085;SDS011;64750;52.134;5.424;2024-03-07T06:51:10;31.58;;;18.08;;
72085;SDS011;64750;52.134;5.424;2024-03-07T06:53:39;30.20;;;18.38;;
72085;SDS011;64750;52.134;5.424;2024-03-07T06:56:05;30.73;;;18.17;;
72085;SDS011;64750;52.134;5.424;2024-03-07T06:58:32;32.88;;;18.25;;
72085;SDS011;64750;52.134;5.424;2024-03-07T07:00:59;38.27;;;18.40;;
72085;SDS011;64750;52.134;5.424;2024-03-07T07:03:27;31.25;;;18.85;;
72085;SDS011;64750;52.134;5.424;2024-03-07T07:05:58;29.40;;;17.38;;
72085;SDS011;64750;52.134;5.424;2024-03-07T07:08:25;35.83;;;18.45;;
72085;SDS011;64750;52.134;5.424;2024-03-07T07:10:52;33.33;;;19.13;;
72085;SDS011;64750;52.134;5.424;2024-03-07T07:13:20;30.00;;;16.80;;
72085;SDS011;64750;52.134;5.424;2024-03-07T07:15:48;32.10;;;18.85;;
72085;SDS011;64750;52.134;5.424;2024-03-07T07:18:15;33.15;;;18.30;;
72085;SDS011;64750;52.134;5.424;2024-03-07T07:20:42;33.67;;;19.33;;
72085;SDS011;64750;52.134;5.424;2024-03-07T07:23:09;31.15;;;17.92;;
72085;SDS011;64750;52.134;5.424;2024-03-07T07:25:35;31.80;;;18.63;;
72085;SDS011;64750;52.134;5.424;2024-03-07T07:28:02;30.60;;;18.00;;
72085;SDS011;64750;52.134;5.424;2024-03-07T07:30:34;27.70;;;16.92;;
72085;SDS011;64750;52.134;5.424;2024-03-07T07:33:00;32.25;;;17.58;;
72085;SDS011;64750;52.134;5.424;2024-03-07T07:35:27;30.27;;;18.42;;
72085;SDS011;64750;52.134;5.424;2024-03-07T07:37:53;31.77;;;17.47;;
72085;SDS011;64750;52.134;5.424;2024-03-07T07:40:22;31.35;;;17.77;;
72085;SDS011;64750;52.134;5.424;2024-03-07T07:42:51;28.35;;;17.35;;
72085;SDS011;64750;52.134;5.424;2024-03-07T07:45:19;30.38;;;16.67;;
72085;SDS011;64750;52.134;5.424;2024-03-07T07:47:50;28.13;;;17.17;;
72085;SDS011;64750;52.134;5.424;2024-03-07T07:50:19;27.23;;;16.07;;
72085;SDS011;64750;52.134;5.424;2024-03-07T07:52:48;32.28;;;17.88;;
72085;SDS011;64750;52.134;5.424;2024-03-07T07:55:19;26.30;;;17.00;;
72085;SDS011;64750;52.134;5.424;2024-03-07T07:57:48;27.17;;;16.50;;
72085;SDS011;64750;52.134;5.424;2024-03-07T08:00:19;25.77;;;16.52;;
72085;SDS011;64750;52.134;5.424;2024-03-07T08:02:48;25.83;;;16.17;;
72085;SDS011;64750;52.134;5.424;2024-03-07T08:05:24;27.23;;;16.98;;
72085;SDS011;64750;52.134;5.424;2024-03-07T08:07:52;25.58;;;15.20;;
72085;SDS011;64750;52.134;5.424;2024-03-07T08:10:19;24.85;;;15.75;;
72085;SDS011;64750;52.134;5.424;2024-03-07T08:12:47;28.20;;;16.33;;
72085;SDS011;64750;52.134;5.424;2024-03-07T08:15:14;25.73;;;15.73;;
72085;SDS011;64750;52.134;5.424;2024-03-07T08:17:45;26.27;;;15.30;;
72085;SDS011;64750;52.134;5.424;2024-03-07T08:20:16;27.42;;;17.15;;
72085;SDS011;64750;52.134;5.424;2024-03-07T08:22:44;23.88;;;14.25;;
72085;SDS011;64750;52.134;5.424;2024-03-07T08:25:14;24.10;;;14.75;;
72085;SDS011;64750;52.134;5.424;2024-03-07T08:27:41;24.33;;;14.80;;
72085;SDS011;64750;52.134;5.424;2024-03-07T08:30:09;23.95;;;14.73;;
72085;SDS011;64750;52.134;5.424;2024-03-07T08:35:08;21.58;;;14.55;;
72085;SDS011;64750;52.134;5.424;2024-03-07T08:37:36;21.73;;;14.43;;
72085;SDS011;64750;52.134;5.424;2024-03-07T08:40:03;22.23;;;15.47;;
72085;SDS011;64750;52.134;5.424;2024-03-07T08:42:31;22.90;;;14.30;;
72085;SDS011;64750;52.134;5.424;2024-03-07T08:45:00;23.15;;;14.20;;
72085;SDS011;64750;52.134;5.424;2024-03-07T08:47:31;26.80;;;13.90;;
72085;SDS011;64750;52.134;5.424;2024-03-07T08:49:58;23.70;;;14.38;;
72085;SDS011;64750;52.134;5.424;2024-03-07T08:52:25;21.37;;;13.80;;
72085;SDS011;64750;52.134;5.424;2024-03-07T08:54:52;18.05;;;12.70;;
72085;SDS011;64750;52.134;5.424;2024-03-07T08:57:20;18.15;;;12.45;;
72085;SDS011;64750;52.134;5.424;2024-03-07T08:59:48;17.35;;;12.70;;
72085;SDS011;64750;52.134;5.424;2024-03-07T09:02:15;16.33;;;12.52;;
72085;SDS011;64750;52.134;5.424;2024-03-07T09:04:42;18.17;;;12.03;;
72085;SDS011;64750;52.134;5.424;2024-03-07T09:07:08;17.88;;;12.98;;
72085;SDS011;64750;52.134;5.424;2024-03-07T09:09:35;15.90;;;12.55;;
72085;SDS011;64750;52.134;5.424;2024-03-07T09:12:01;15.93;;;12.25;;
72085;SDS011;64750;52.134;5.424;2024-03-07T09:14:29;14.73;;;11.40;;
72085;SDS011;64750;52.134;5.424;2024-03-07T09:16:55;15.07;;;11.55;;
72085;SDS011;64750;52.134;5.424;2024-03-07T09:19:23;17.48;;;11.43;;
72085;SDS011;64750;52.134;5.424;2024-03-07T09:21:53;14.02;;;11.15;;
72085;SDS011;64750;52.134;5.424;2024-03-07T09:24:20;13.68;;;10.95;;
72085;SDS011;64750;52.134;5.424;2024-03-07T09:26:50;13.70;;;10.67;;
72085;SDS011;64750;52.134;5.424;2024-03-07T09:29:18;16.27;;;11.82;;
72085;SDS011;64750;52.134;5.424;2024-03-07T09:31:45;17.42;;;10.55;;
72085;SDS011;64750;52.134;5.424;2024-03-07T09:34:15;14.35;;;10.15;;
72085;SDS011;64750;52.134;5.424;2024-03-07T09:36:42;14.38;;;10.85;;
72085;SDS011;64750;52.134;5.424;2024-03-07T09:39:09;16.77;;;10.47;;
72085;SDS011;64750;52.134;5.424;2024-03-07T09:41:36;15.25;;;10.23;;
72085;SDS011;64750;52.134;5.424;2024-03-07T09:44:09;14.88;;;10.57;;
72085;SDS011;64750;52.134;5.424;2024-03-07T09:46:38;15.45;;;11.00;;
72085;SDS011;64750;52.134;5.424;2024-03-07T09:49:04;12.48;;;9.98;;
72085;SDS011;64750;52.134;5.424;2024-03-07T09:51:34;14.20;;;10.40;;
72085;SDS011;64750;52.134;5.424;2024-03-07T09:54:01;15.45;;;10.32;;
72085;SDS011;64750;52.134;5.424;2024-03-07T09:56:29;16.77;;;11.82;;
72085;SDS011;64750;52.134;5.424;2024-03-07T09:59:03;14.00;;;10.30;;
72085;SDS011;64750;52.134;5.424;2024-03-07T10:01:30;13.77;;;10.55;;
72085;SDS011;64750;52.134;5.424;2024-03-07T10:04:00;13.40;;;9.63;;
72085;SDS011;64750;52.134;5.424;2024-03-07T10:06:38;18.90;;;10.80;;
72085;SDS011;64750;52.134;5.424;2024-03-07T10:09:07;13.68;;;10.80;;
72085;SDS011;64750;52.134;5.424;2024-03-07T10:11:34;15.82;;;10.77;;
72085;SDS011;64750;52.134;5.424;2024-03-07T10:14:01;15.90;;;12.07;;
72085;SDS011;64750;52.134;5.424;2024-03-07T10:16:31;15.33;;;10.40;;
72085;SDS011;64750;52.134;5.424;2024-03-07T10:18:58;17.67;;;11.00;;
72085;SDS011;64750;52.134;5.424;2024-03-07T10:21:27;14.52;;;10.65;;
72085;SDS011;64750;52.134;5.424;2024-03-07T10:24:06;14.82;;;9.93;;
72085;SDS011;64750;52.134;5.424;2024-03-07T10:26:34;16.15;;;10.52;;
72085;SDS011;64750;52.134;5.424;2024-03-07T10:29:01;17.30;;;11.53;;
72085;SDS011;64750;52.134;5.424;2024-03-07T10:31:29;17.02;;;11.48;;
72085;SDS011;64750;52.134;5.424;2024-03-07T10:34:00;16.90;;;9.95;;
72085;SDS011;64750;52.134;5.424;2024-03-07T10:36:31;14.82;;;10.23;;
72085;SDS011;64750;52.134;5.424;2024-03-07T10:38:58;14.43;;;10.40;;
72085;SDS011;64750;52.134;5.424;2024-03-07T10:41:40;15.93;;;11.13;;
72085;SDS011;64750;52.134;5.424;2024-03-07T10:44:15;15.88;;;10.23;;
72085;SDS011;64750;52.134;5.424;2024-03-07T10:46:49;13.23;;;10.00;;
72085;SDS011;64750;52.134;5.424;2024-03-07T10:49:19;13.43;;;10.13;;
72085;SDS011;64750;52.134;5.424;2024-03-07T10:51:54;18.50;;;10.15;;
72085;SDS011;64750;52.134;5.424;2024-03-07T10:57:12;14.13;;;10.15;;
72085;SDS011;64750;52.134;5.424;2024-03-07T10:59:49;15.90;;;10.48;;
72085;SDS011;64750;52.134;5.424;2024-03-07T11:02:24;11.82;;;9.07;;
72085;SDS011;64750;52.134;5.424;2024-03-07T11:04:59;14.45;;;9.50;;
72085;SDS011;64750;52.134;5.424;2024-03-07T11:07:26;13.47;;;9.03;;
72085;SDS011;64750;52.134;5.424;2024-03-07T11:09:54;16.35;;;10.77;;
72085;SDS011;64750;52.134;5.424;2024-03-07T11:12:22;13.55;;;9.70;;
72085;SDS011;64750;52.134;5.424;2024-03-07T11:14:50;15.15;;;9.80;;
72085;SDS011;64750;52.134;5.424;2024-03-07T11:17:19;13.98;;;10.38;;
72085;SDS011;64750;52.134;5.424;2024-03-07T11:19:48;15.47;;;10.13;;
72085;SDS011;64750;52.134;5.424;2024-03-07T11:22:28;11.82;;;9.40;;
72085;SDS011;64750;52.134;5.424;2024-03-07T11:25:02;15.50;;;10.30;;
72085;SDS011;64750;52.134;5.424;2024-03-07T11:27:36;13.48;;;9.63;;
72085;SDS011;64750;52.134;5.424;2024-03-07T11:30:05;15.75;;;10.77;;
72085;SDS011;64750;52.134;5.424;2024-03-07T11:32:37;11.33;;;9.87;;
72085;SDS011;64750;52.134;5.424;2024-03-07T11:35:04;12.15;;;9.65;;
72085;SDS011;64750;52.134;5.424;2024-03-07T11:37:38;14.85;;;11.18;;
72085;SDS011;64750;52.134;5.424;2024-03-07T11:42:47;17.75;;;11.40;;
72085;SDS011;64750;52.134;5.424;2024-03-07T11:45:14;18.97;;;11.00;;
72085;SDS011;64750;52.134;5.424;2024-03-07T11:47:57;21.52;;;10.82;;
72085;SDS011;64750;52.134;5.424;2024-03-07T11:50:36;13.75;;;10.25;;
72085;SDS011;64750;52.134;5.424;2024-03-07T11:53:03;16.45;;;10.07;;
72085;SDS011;64750;52.134;5.424;2024-03-07T11:55:38;14.68;;;10.35;;
72085;SDS011;64750;52.134;5.424;2024-03-07T12:00:44;15.75;;;10.13;;
72085;SDS011;64750;52.134;5.424;2024-03-07T12:03:12;19.33;;;10.95;;
72085;SDS011;64750;52.134;5.424;2024-03-07T12:05:43;18.55;;;11.15;;
72085;SDS011;64750;52.134;5.424;2024-03-07T12:08:11;15.35;;;10.38;;
72085;SDS011;64750;52.134;5.424;2024-03-07T12:10:40;13.83;;;10.10;;
72085;SDS011;64750;52.134;5.424;2024-03-07T12:13:14;16.85;;;11.13;;
72085;SDS011;64750;52.134;5.424;2024-03-07T12:15:42;15.40;;;10.73;;
72085;SDS011;64750;52.134;5.424;2024-03-07T12:18:09;15.48;;;9.63;;
72085;SDS011;64750;52.134;5.424;2024-03-07T12:20:38;16.70;;;10.93;;
72085;SDS011;64750;52.134;5.424;2024-03-07T12:23:08;14.70;;;9.90;;
72085;SDS011;64750;52.134;5.424;2024-03-07T12:25:35;12.27;;;9.02;;
72085;SDS011;64750;52.134;5.424;2024-03-07T12:28:12;14.20;;;10.68;;
72085;SDS011;64750;52.134;5.424;2024-03-07T12:33:13;15.15;;;9.77;;
72085;SDS011;64750;52.134;5.424;2024-03-07T12:35:46;12.87;;;9.57;;
72085;SDS011;64750;52.134;5.424;2024-03-07T12:38:16;16.23;;;9.75;;
72085;SDS011;64750;52.134;5.424;2024-03-07T12:40:43;14.35;;;9.82;;
72085;SDS011;64750;52.134;5.424;2024-03-07T12:43:13;14.80;;;9.57;;
72085;SDS011;64750;52.134;5.424;2024-03-07T12:45:44;13.90;;;10.23;;
72085;SDS011;64750;52.134;5.424;2024-03-07T12:48:13;13.43;;;9.73;;
72085;SDS011;64750;52.134;5.424;2024-03-07T12:50:41;15.38;;;10.70;;
72085;SDS011;64750;52.134;5.424;2024-03-07T12:53:07;12.68;;;8.60;;
72085;SDS011;64750;52.134;5.424;2024-03-07T12:55:39;12.13;;;9.68;;
72085;SDS011;64750;52.134;5.424;2024-03-07T12:58:09;15.43;;;10.02;;
72085;SDS011;64750;52.134;5.424;2024-03-07T13:00:38;11.83;;;9.83;;
72085;SDS011;64750;52.134;5.424;2024-03-07T13:03:08;15.65;;;10.07;;
72085;SDS011;64750;52.134;5.424;2024-03-07T13:05:39;13.05;;;9.63;;
72085;SDS011;64750;52.134;5.424;2024-03-07T13:08:09;13.40;;;10.13;;
72085;SDS011;64750;52.134;5.424;2024-03-07T13:10:39;15.90;;;10.00;;
72085;SDS011;64750;52.134;5.424;2024-03-07T13:13:08;13.77;;;9.33;;
72085;SDS011;64750;52.134;5.424;2024-03-07T13:15:38;12.18;;;9.10;;
72085;SDS011;64750;52.134;5.424;2024-03-07T13:18:05;11.38;;;9.38;;
72085;SDS011;64750;52.134;5.424;2024-03-07T13:20:32;13.05;;;9.70;;
72085;SDS011;64750;52.134;5.424;2024-03-07T13:22:59;11.52;;;8.73;;
72085;SDS011;64750;52.134;5.424;2024-03-07T13:25:27;10.53;;;8.53;;
72085;SDS011;64750;52.134;5.424;2024-03-07T13:28:01;13.02;;;9.55;;
72085;SDS011;64750;52.134;5.424;2024-03-07T13:30:34;12.25;;;9.32;;
72085;SDS011;64750;52.134;5.424;2024-03-07T13:33:02;16.25;;;10.02;;
72085;SDS011;64750;52.134;5.424;2024-03-07T13:35:30;12.43;;;9.85;;
72085;SDS011;64750;52.134;5.424;2024-03-07T13:37:56;15.37;;;9.73;;
72085;SDS011;64750;52.134;5.424;2024-03-07T13:40:24;14.20;;;9.38;;
72085;SDS011;64750;52.134;5.424;2024-03-07T13:42:55;12.93;;;9.60;;
72085;SDS011;64750;52.134;5.424;2024-03-07T13:45:24;13.68;;;10.50;;
72085;SDS011;64750;52.134;5.424;2024-03-07T13:47:55;15.82;;;9.95;;
72085;SDS011;64750;52.134;5.424;2024-03-07T13:50:24;11.93;;;9.37;;
72085;SDS011;64750;52.134;5.424;2024-03-07T13:53:15;10.93;;;9.82;;
72085;SDS011;64750;52.134;5.424;2024-03-07T13:55:52;12.13;;;9.90;;
72085;SDS011;64750;52.134;5.424;2024-03-07T14:12:16;11.68;;;9.77;;
72085;SDS011;64750;52.134;5.424;2024-03-07T14:20:47;11.07;;;8.65;;
72085;SDS011;64750;52.134;5.424;2024-03-07T14:26:39;10.35;;;8.32;;
72085;SDS011;64750;52.134;5.424;2024-03-07T14:29:17;10.70;;;8.63;;
72085;SDS011;64750;52.134;5.424;2024-03-07T14:31:53;11.73;;;8.93;;
72085;SDS011;64750;52.134;5.424;2024-03-07T14:34:24;9.65;;;8.65;;
72085;SDS011;64750;52.134;5.424;2024-03-07T14:37:03;10.85;;;8.50;;
72085;SDS011;64750;52.134;5.424;2024-03-07T14:39:35;12.23;;;9.02;;
72085;SDS011;64750;52.134;5.424;2024-03-07T14:42:05;9.65;;;8.68;;
72085;SDS011;64750;52.134;5.424;2024-03-07T14:44:36;10.13;;;9.07;;
72085;SDS011;64750;52.134;5.424;2024-03-07T14:47:06;10.82;;;9.68;;
72085;SDS011;64750;52.134;5.424;2024-03-07T14:49:34;13.55;;;10.57;;
72085;SDS011;64750;52.134;5.424;2024-03-07T14:52:01;11.88;;;9.82;;
72085;SDS011;64750;52.134;5.424;2024-03-07T14:54:29;13.63;;;9.45;;
72085;SDS011;64750;52.134;5.424;2024-03-07T14:56:56;12.23;;;9.17;;
72085;SDS011;64750;52.134;5.424;2024-03-07T14:59:23;13.13;;;9.10;;
72085;SDS011;64750;52.134;5.424;2024-03-07T15:01:50;11.10;;;8.98;;
72085;SDS011;64750;52.134;5.424;2024-03-07T15:04:16;10.25;;;9.20;;
72085;SDS011;64750;52.134;5.424;2024-03-07T15:06:44;10.20;;;9.10;;